sensor_id;sensor_type;location;lat;lon;timestamp;P1;durP1;ratioP1;P2;durP2;ratioP2
64710;SDS011;51139;45.626;6.850;2023-05-07T00:01:00;1.63;;;0.80;;
64710;SDS011;51139;45.626;6.850;2023-05-07T00:03:26;1.10;;;0.80;;
64710;SDS011;51139;45.626;6.850;2023-05-07T00:05:52;2.33;;;0.90;;
64710;SDS011;51139;45.626;6.850;2023-05-07T00:08:18;1.20;;;0.90;;
64710;SDS011;51139;45.626;6.850;2023-05-07T00:10:43;0.90;;;0.80;;
64710;SDS011;51139;45.626;6.850;2023-05-07T00:13:09;0.80;;;0.80;;
64710;SDS011;51139;45.626;6.850;2023-05-07T00:15:35;1.42;;;0.80;;
64710;SDS011;51139;45.626;6.850;2023-05-07T00:18:00;2.60;;;0.82;;
64710;SDS011;51139;45.626;6.850;2023-05-07T00:20:26;1.73;;;0.90;;
64710;SDS011;51139;45.626;6.850;2023-05-07T00:22:51;1.48;;;0.85;;
64710;SDS011;51139;45.626;6.850;2023-05-07T00:25:17;1.58;;;0.85;;
64710;SDS011;51139;45.626;6.850;2023-05-07T00:27:44;1.75;;;0.90;;
64710;SDS011;51139;45.626;6.850;2023-05-07T00:30:10;1.58;;;0.90;;
64710;SDS011;51139;45.626;6.850;2023-05-07T00:32:36;1.30;;;0.90;;
64710;SDS011;51139;45.626;6.850;2023-05-07T00:35:01;2.80;;;0.90;;
64710;SDS011;51139;45.626;6.850;2023-05-07T00:37:27;1.58;;;0.80;;
64710;SDS011;51139;45.626;6.850;2023-05-07T00:39:52;1.27;;;0.93;;
64710;SDS011;51139;45.626;6.850;2023-05-07T00:42:18;1.85;;;1.00;;
64710;SDS011;51139;45.626;6.850;2023-05-07T00:44:43;1.75;;;0.90;;
64710;SDS011;51139;45.626;6.850;2023-05-07T00:47:09;1.23;;;0.85;;
64710;SDS011;51139;45.626;6.850;2023-05-07T00:49:37;2.20;;;0.90;;
64710;SDS011;51139;45.626;6.850;2023-05-07T00:52:09;2.33;;;0.85;;
64710;SDS011;51139;45.626;6.850;2023-05-07T00:54:37;1.25;;;0.70;;
64710;SDS011;51139;45.626;6.850;2023-05-07T00:57:02;2.15;;;0.70;;
64710;SDS011;51139;45.626;6.850;2023-05-07T00:59:29;1.40;;;0.80;;
64710;SDS011;51139;45.626;6.850;2023-05-07T01:01:56;1.80;;;0.85;;
64710;SDS011;51139;45.626;6.850;2023-05-07T01:04:22;1.92;;;0.90;;
64710;SDS011;51139;45.626;6.850;2023-05-07T01:06:47;0.95;;;0.70;;
64710;SDS011;51139;45.626;6.850;2023-05-07T01:09:13;1.42;;;1.00;;
64710;SDS011;51139;45.626;6.850;2023-05-07T01:11:39;1.17;;;0.80;;
64710;SDS011;51139;45.626;6.850;2023-05-07T01:14:05;2.58;;;0.90;;
64710;SDS011;51139;45.626;6.850;2023-05-07T01:16:32;2.22;;;0.90;;
64710;SDS011;51139;45.626;6.850;2023-05-07T01:18:58;2.17;;;0.95;;
64710;SDS011;51139;45.626;6.850;2023-05-07T01:21:24;1.05;;;0.70;;
64710;SDS011;51139;45.626;6.850;2023-05-07T01:23:51;1.55;;;0.85;;
64710;SDS011;51139;45.626;6.850;2023-05-07T01:26:18;1.17;;;0.70;;
64710;SDS011;51139;45.626;6.850;2023-05-07T01:28:44;1.27;;;0.70;;
64710;SDS011;51139;45.626;6.850;2023-05-07T01:31:10;1.40;;;0.90;;
64710;SDS011;51139;45.626;6.850;2023-05-07T01:33:38;1.67;;;0.90;;
64710;SDS011;51139;45.626;6.850;2023-05-07T01:36:06;1.77;;;0.80;;
64710;SDS011;51139;45.626;6.850;2023-05-07T01:38:33;2.08;;;0.73;;
64710;SDS011;51139;45.626;6.850;2023-05-07T01:41:01;3.10;;;0.80;;
64710;SDS011;51139;45.626;6.850;2023-05-07T01:43:28;1.20;;;0.90;;
64710;SDS011;51139;45.626;6.850;2023-05-07T01:45:54;1.88;;;1.02;;
64710;SDS011;51139;45.626;6.850;2023-05-07T01:48:20;0.90;;;0.70;;
64710;SDS011;51139;45.626;6.850;2023-05-07T01:50:46;1.85;;;1.00;;
64710;SDS011;51139;45.626;6.850;2023-05-07T01:53:12;1.42;;;0.82;;
64710;SDS011;51139;45.626;6.850;2023-05-07T01:55:38;1.38;;;0.90;;
64710;SDS011;51139;45.626;6.850;2023-05-07T01:58:04;1.10;;;0.60;;
64710;SDS011;51139;45.626;6.850;2023-05-07T02:00:30;0.98;;;0.77;;
64710;SDS011;51139;45.626;6.850;2023-05-07T02:02:56;2.05;;;0.93;;
64710;SDS011;51139;45.626;6.850;2023-05-07T02:05:22;2.38;;;0.90;;
64710;SDS011;51139;45.626;6.850;2023-05-07T02:07:47;2.05;;;1.17;;
64710;SDS011;51139;45.626;6.850;2023-05-07T02:10:13;2.15;;;0.80;;
64710;SDS011;51139;45.626;6.850;2023-05-07T02:12:38;1.10;;;0.80;;
64710;SDS011;51139;45.626;6.850;2023-05-07T02:15:04;1.67;;;0.98;;
64710;SDS011;51139;45.626;6.850;2023-05-07T02:17:30;2.05;;;0.80;;
64710;SDS011;51139;45.626;6.850;2023-05-07T02:19:57;1.30;;;0.80;;
64710;SDS011;51139;45.626;6.850;2023-05-07T02:22:23;1.20;;;0.80;;
64710;SDS011;51139;45.626;6.850;2023-05-07T02:24:50;2.47;;;0.90;;
64710;SDS011;51139;45.626;6.850;2023-05-07T02:27:15;2.05;;;1.00;;
64710;SDS011;51139;45.626;6.850;2023-05-07T02:29:42;1.75;;;0.90;;
64710;SDS011;51139;45.626;6.850;2023-05-07T02:32:07;2.15;;;0.90;;
64710;SDS011;51139;45.626;6.850;2023-05-07T02:34:32;1.35;;;0.90;;
64710;SDS011;51139;45.626;6.850;2023-05-07T02:36:58;1.20;;;0.98;;
64710;SDS011;51139;45.626;6.850;2023-05-07T02:39:23;0.98;;;0.80;;
64710;SDS011;51139;45.626;6.850;2023-05-07T02:41:48;1.08;;;0.90;;
64710;SDS011;51139;45.626;6.850;2023-05-07T02:44:15;2.67;;;1.10;;
64710;SDS011;51139;45.626;6.850;2023-05-07T02:46:40;1.65;;;0.88;;
64710;SDS011;51139;45.626;6.850;2023-05-07T02:49:06;1.13;;;0.73;;
64710;SDS011;51139;45.626;6.850;2023-05-07T02:51:31;1.20;;;1.10;;
64710;SDS011;51139;45.626;6.850;2023-05-07T02:53:57;1.48;;;0.98;;
64710;SDS011;51139;45.626;6.850;2023-05-07T02:56:22;2.90;;;1.15;;
64710;SDS011;51139;45.626;6.850;2023-05-07T02:58:47;2.63;;;1.20;;
64710;SDS011;51139;45.626;6.850;2023-05-07T03:01:13;1.92;;;1.15;;
64710;SDS011;51139;45.626;6.850;2023-05-07T03:03:39;1.48;;;1.08;;
64710;SDS011;51139;45.626;6.850;2023-05-07T03:06:05;4.47;;;3.35;;
64710;SDS011;51139;45.626;6.850;2023-05-07T03:08:32;1.67;;;1.10;;
64710;SDS011;51139;45.626;6.850;2023-05-07T03:10:57;1.42;;;1.10;;
64710;SDS011;51139;45.626;6.850;2023-05-07T03:13:23;3.72;;;2.55;;
64710;SDS011;51139;45.626;6.850;2023-05-07T03:15:48;3.85;;;1.73;;
64710;SDS011;51139;45.626;6.850;2023-05-07T03:18:14;2.50;;;0.90;;
64710;SDS011;51139;45.626;6.850;2023-05-07T03:20:39;2.08;;;0.80;;
64710;SDS011;51139;45.626;6.850;2023-05-07T03:23:05;2.15;;;1.00;;
64710;SDS011;51139;45.626;6.850;2023-05-07T03:25:30;1.30;;;0.80;;
64710;SDS011;51139;45.626;6.850;2023-05-07T03:27:56;2.95;;;1.50;;
64710;SDS011;51139;45.626;6.850;2023-05-07T03:30:21;5.43;;;3.58;;
64710;SDS011;51139;45.626;6.850;2023-05-07T03:32:47;1.98;;;1.20;;
64710;SDS011;51139;45.626;6.850;2023-05-07T03:35:13;1.48;;;1.00;;
64710;SDS011;51139;45.626;6.850;2023-05-07T03:37:38;1.20;;;1.10;;
64710;SDS011;51139;45.626;6.850;2023-05-07T03:40:04;1.98;;;0.90;;
64710;SDS011;51139;45.626;6.850;2023-05-07T03:42:30;1.13;;;0.88;;
64710;SDS011;51139;45.626;6.850;2023-05-07T03:44:56;1.67;;;0.90;;
64710;SDS011;51139;45.626;6.850;2023-05-07T03:47:21;1.70;;;1.02;;
64710;SDS011;51139;45.626;6.850;2023-05-07T03:49:47;2.75;;;1.15;;
64710;SDS011;51139;45.626;6.850;2023-05-07T03:52:13;0.82;;;0.80;;
64710;SDS011;51139;45.626;6.850;2023-05-07T03:54:39;1.17;;;0.80;;
64710;SDS011;51139;45.626;6.850;2023-05-07T03:57:05;2.03;;;0.70;;
64710;SDS011;51139;45.626;6.850;2023-05-07T03:59:30;2.35;;;0.85;;
64710;SDS011;51139;45.626;6.850;2023-05-07T04:01:55;1.90;;;0.80;;
64710;SDS011;51139;45.626;6.850;2023-05-07T04:04:22;1.13;;;0.60;;
64710;SDS011;51139;45.626;6.850;2023-05-07T04:06:48;1.33;;;0.85;;
64710;SDS011;51139;45.626;6.850;2023-05-07T04:09:13;1.63;;;0.80;;
64710;SDS011;51139;45.626;6.850;2023-05-07T04:11:39;1.98;;;0.95;;
64710;SDS011;51139;45.626;6.850;2023-05-07T04:14:05;1.08;;;0.95;;
64710;SDS011;51139;45.626;6.850;2023-05-07T04:16:31;1.60;;;0.80;;
64710;SDS011;51139;45.626;6.850;2023-05-07T04:18:56;1.38;;;1.00;;
64710;SDS011;51139;45.626;6.850;2023-05-07T04:21:21;5.78;;;1.10;;
64710;SDS011;51139;45.626;6.850;2023-05-07T04:23:47;1.73;;;1.00;;
64710;SDS011;51139;45.626;6.850;2023-05-07T04:26:13;1.80;;;0.80;;
64710;SDS011;51139;45.626;6.850;2023-05-07T04:28:39;2.75;;;1.17;;
64710;SDS011;51139;45.626;6.850;2023-05-07T04:31:05;1.73;;;1.10;;
64710;SDS011;51139;45.626;6.850;2023-05-07T04:33:31;1.90;;;0.70;;
64710;SDS011;51139;45.626;6.850;2023-05-07T04:35:57;2.13;;;0.80;;
64710;SDS011;51139;45.626;6.850;2023-05-07T04:38:22;1.35;;;0.80;;
64710;SDS011;51139;45.626;6.850;2023-05-07T04:40:48;1.98;;;0.90;;
64710;SDS011;51139;45.626;6.850;2023-05-07T04:43:14;1.05;;;0.80;;
64710;SDS011;51139;45.626;6.850;2023-05-07T04:45:39;1.10;;;1.00;;
64710;SDS011;51139;45.626;6.850;2023-05-07T04:48:06;2.28;;;0.80;;
64710;SDS011;51139;45.626;6.850;2023-05-07T04:50:32;3.30;;;0.90;;
64710;SDS011;51139;45.626;6.850;2023-05-07T04:52:57;4.32;;;0.90;;
64710;SDS011;51139;45.626;6.850;2023-05-07T04:55:23;1.35;;;0.80;;
64710;SDS011;51139;45.626;6.850;2023-05-07T04:57:48;1.50;;;0.90;;
64710;SDS011;51139;45.626;6.850;2023-05-07T05:00:14;2.35;;;0.88;;
64710;SDS011;51139;45.626;6.850;2023-05-07T05:02:40;2.38;;;0.90;;
64710;SDS011;51139;45.626;6.850;2023-05-07T05:05:06;6.72;;;4.60;;
64710;SDS011;51139;45.626;6.850;2023-05-07T05:07:31;3.75;;;2.50;;
64710;SDS011;51139;45.626;6.850;2023-05-07T05:09:57;4.22;;;2.67;;
64710;SDS011;51139;45.626;6.850;2023-05-07T05:12:22;3.70;;;1.83;;
64710;SDS011;51139;45.626;6.850;2023-05-07T05:14:48;1.38;;;1.00;;
64710;SDS011;51139;45.626;6.850;2023-05-07T05:17:13;8.35;;;4.82;;
64710;SDS011;51139;45.626;6.850;2023-05-07T05:19:39;12.48;;;5.90;;
64710;SDS011;51139;45.626;6.850;2023-05-07T05:22:04;5.03;;;2.47;;
64710;SDS011;51139;45.626;6.850;2023-05-07T05:24:30;7.32;;;3.45;;
64710;SDS011;51139;45.626;6.850;2023-05-07T05:26:56;2.63;;;1.50;;
64710;SDS011;51139;45.626;6.850;2023-05-07T05:29:21;2.78;;;1.67;;
64710;SDS011;51139;45.626;6.850;2023-05-07T05:31:47;2.03;;;1.15;;
64710;SDS011;51139;45.626;6.850;2023-05-07T05:34:12;1.63;;;0.80;;
64710;SDS011;51139;45.626;6.850;2023-05-07T05:36:38;1.77;;;0.98;;
64710;SDS011;51139;45.626;6.850;2023-05-07T05:39:03;1.60;;;0.98;;
64710;SDS011;51139;45.626;6.850;2023-05-07T05:41:29;1.35;;;0.80;;
64710;SDS011;51139;45.626;6.850;2023-05-07T05:43:54;1.20;;;0.70;;
64710;SDS011;51139;45.626;6.850;2023-05-07T05:46:20;1.85;;;0.80;;
64710;SDS011;51139;45.626;6.850;2023-05-07T05:48:45;2.35;;;1.10;;
64710;SDS011;51139;45.626;6.850;2023-05-07T05:51:10;0.95;;;0.77;;
64710;SDS011;51139;45.626;6.850;2023-05-07T05:53:36;2.35;;;0.95;;
64710;SDS011;51139;45.626;6.850;2023-05-07T05:56:02;2.10;;;1.00;;
64710;SDS011;51139;45.626;6.850;2023-05-07T05:58:27;2.95;;;1.00;;
64710;SDS011;51139;45.626;6.850;2023-05-07T06:00:52;1.33;;;1.00;;
64710;SDS011;51139;45.626;6.850;2023-05-07T06:03:18;1.73;;;1.10;;
64710;SDS011;51139;45.626;6.850;2023-05-07T06:05:45;1.20;;;1.00;;
64710;SDS011;51139;45.626;6.850;2023-05-07T06:08:10;1.15;;;0.90;;
64710;SDS011;51139;45.626;6.850;2023-05-07T06:10:36;2.05;;;0.80;;
64710;SDS011;51139;45.626;6.850;2023-05-07T06:13:02;1.75;;;0.80;;
64710;SDS011;51139;45.626;6.850;2023-05-07T06:15:28;2.53;;;0.90;;
64710;SDS011;51139;45.626;6.850;2023-05-07T06:17:53;2.78;;;1.00;;
64710;SDS011;51139;45.626;6.850;2023-05-07T06:20:20;2.15;;;0.88;;
64710;SDS011;51139;45.626;6.850;2023-05-07T06:22:46;3.40;;;1.00;;
64710;SDS011;51139;45.626;6.850;2023-05-07T06:25:11;0.98;;;0.88;;
64710;SDS011;51139;45.626;6.850;2023-05-07T06:27:37;0.82;;;0.70;;
64710;SDS011;51139;45.626;6.850;2023-05-07T06:30:04;1.13;;;0.70;;
64710;SDS011;51139;45.626;6.850;2023-05-07T06:32:31;2.40;;;0.90;;
64710;SDS011;51139;45.626;6.850;2023-05-07T06:34:56;1.88;;;1.00;;
64710;SDS011;51139;45.626;6.850;2023-05-07T06:37:22;1.65;;;0.90;;
64710;SDS011;51139;45.626;6.850;2023-05-07T06:39:47;1.52;;;0.77;;
64710;SDS011;51139;45.626;6.850;2023-05-07T06:42:12;1.75;;;0.85;;
64710;SDS011;51139;45.626;6.850;2023-05-07T06:44:38;1.13;;;0.90;;
64710;SDS011;51139;45.626;6.850;2023-05-07T06:47:03;1.77;;;0.90;;
64710;SDS011;51139;45.626;6.850;2023-05-07T06:49:30;1.48;;;1.00;;
64710;SDS011;51139;45.626;6.850;2023-05-07T06:51:56;1.40;;;1.00;;
64710;SDS011;51139;45.626;6.850;2023-05-07T06:54:22;2.40;;;0.88;;
64710;SDS011;51139;45.626;6.850;2023-05-07T06:56:47;1.88;;;0.95;;
64710;SDS011;51139;45.626;6.850;2023-05-07T06:59:13;0.70;;;0.65;;
64710;SDS011;51139;45.626;6.850;2023-05-07T07:01:38;1.02;;;0.68;;
64710;SDS011;51139;45.626;6.850;2023-05-07T07:04:04;1.65;;;1.15;;
64710;SDS011;51139;45.626;6.850;2023-05-07T07:06:29;1.95;;;1.00;;
64710;SDS011;51139;45.626;6.850;2023-05-07T07:08:56;1.52;;;1.02;;
64710;SDS011;51139;45.626;6.850;2023-05-07T07:11:22;1.17;;;0.90;;
64710;SDS011;51139;45.626;6.850;2023-05-07T07:13:48;1.30;;;0.90;;
64710;SDS011;51139;45.626;6.850;2023-05-07T07:16:13;1.02;;;0.90;;
64710;SDS011;51139;45.626;6.850;2023-05-07T07:18:38;1.92;;;1.20;;
64710;SDS011;51139;45.626;6.850;2023-05-07T07:21:04;2.03;;;1.30;;
64710;SDS011;51139;45.626;6.850;2023-05-07T07:23:30;1.77;;;1.27;;
64710;SDS011;51139;45.626;6.850;2023-05-07T07:25:55;2.85;;;1.48;;
64710;SDS011;51139;45.626;6.850;2023-05-07T07:28:21;2.22;;;1.00;;
64710;SDS011;51139;45.626;6.850;2023-05-07T07:30:47;1.38;;;0.90;;
64710;SDS011;51139;45.626;6.850;2023-05-07T07:33:12;1.77;;;0.88;;
64710;SDS011;51139;45.626;6.850;2023-05-07T07:35:38;2.25;;;0.98;;
64710;SDS011;51139;45.626;6.850;2023-05-07T07:38:03;2.45;;;0.88;;
64710;SDS011;51139;45.626;6.850;2023-05-07T07:40:28;1.75;;;1.13;;
64710;SDS011;51139;45.626;6.850;2023-05-07T07:42:56;1.17;;;0.88;;
64710;SDS011;51139;45.626;6.850;2023-05-07T07:45:22;1.70;;;1.00;;
64710;SDS011;51139;45.626;6.850;2023-05-07T07:47:47;1.88;;;0.95;;
64710;SDS011;51139;45.626;6.850;2023-05-07T07:50:13;2.03;;;1.00;;
64710;SDS011;51139;45.626;6.850;2023-05-07T07:52:38;1.65;;;0.80;;
64710;SDS011;51139;45.626;6.850;2023-05-07T07:55:04;2.00;;;1.00;;
64710;SDS011;51139;45.626;6.850;2023-05-07T07:57:30;2.25;;;0.98;;
64710;SDS011;51139;45.626;6.850;2023-05-07T07:59:55;1.92;;;1.15;;
64710;SDS011;51139;45.626;6.850;2023-05-07T08:02:21;1.77;;;1.00;;
64710;SDS011;51139;45.626;6.850;2023-05-07T08:04:46;1.60;;;1.02;;
64710;SDS011;51139;45.626;6.850;2023-05-07T08:07:12;1.85;;;1.17;;
64710;SDS011;51139;45.626;6.850;2023-05-07T08:09:38;0.98;;;0.88;;
64710;SDS011;51139;45.626;6.850;2023-05-07T08:12:04;1.48;;;0.95;;
64710;SDS011;51139;45.626;6.850;2023-05-07T08:14:33;1.50;;;1.13;;
64710;SDS011;51139;45.626;6.850;2023-05-07T08:16:59;1.52;;;1.10;;
64710;SDS011;51139;45.626;6.850;2023-05-07T08:19:25;1.02;;;0.90;;
64710;SDS011;51139;45.626;6.850;2023-05-07T08:21:50;1.95;;;1.15;;
64710;SDS011;51139;45.626;6.850;2023-05-07T08:24:16;1.45;;;0.90;;
64710;SDS011;51139;45.626;6.850;2023-05-07T08:26:42;1.40;;;0.95;;
64710;SDS011;51139;45.626;6.850;2023-05-07T08:29:08;2.35;;;1.00;;
64710;SDS011;51139;45.626;6.850;2023-05-07T08:31:33;2.45;;;1.17;;
64710;SDS011;51139;45.626;6.850;2023-05-07T08:33:58;2.10;;;1.00;;
64710;SDS011;51139;45.626;6.850;2023-05-07T08:36:24;1.25;;;1.00;;
64710;SDS011;51139;45.626;6.850;2023-05-07T08:38:53;2.55;;;1.20;;
64710;SDS011;51139;45.626;6.850;2023-05-07T08:41:19;1.10;;;0.90;;
64710;SDS011;51139;45.626;6.850;2023-05-07T08:43:47;2.00;;;0.90;;
64710;SDS011;51139;45.626;6.850;2023-05-07T08:46:17;1.20;;;0.90;;
64710;SDS011;51139;45.626;6.850;2023-05-07T08:48:47;1.90;;;1.35;;
64710;SDS011;51139;45.626;6.850;2023-05-07T08:51:15;1.65;;;1.02;;
64710;SDS011;51139;45.626;6.850;2023-05-07T08:53:41;1.85;;;1.10;;
64710;SDS011;51139;45.626;6.850;2023-05-07T08:56:10;1.58;;;1.20;;
64710;SDS011;51139;45.626;6.850;2023-05-07T08:58:36;1.25;;;1.02;;
64710;SDS011;51139;45.626;6.850;2023-05-07T09:01:03;1.92;;;1.23;;
64710;SDS011;51139;45.626;6.850;2023-05-07T09:03:33;1.80;;;1.20;;
64710;SDS011;51139;45.626;6.850;2023-05-07T09:05:59;2.75;;;1.20;;
64710;SDS011;51139;45.626;6.850;2023-05-07T09:08:25;1.17;;;1.00;;
64710;SDS011;51139;45.626;6.850;2023-05-07T09:10:52;1.67;;;1.10;;
64710;SDS011;51139;45.626;6.850;2023-05-07T09:13:18;3.20;;;1.30;;
64710;SDS011;51139;45.626;6.850;2023-05-07T09:15:44;2.83;;;1.20;;
64710;SDS011;51139;45.626;6.850;2023-05-07T09:18:09;1.67;;;1.27;;
64710;SDS011;51139;45.626;6.850;2023-05-07T09:20:38;2.25;;;1.25;;
64710;SDS011;51139;45.626;6.850;2023-05-07T09:23:06;2.00;;;1.23;;
64710;SDS011;51139;45.626;6.850;2023-05-07T09:25:32;2.05;;;1.20;;
64710;SDS011;51139;45.626;6.850;2023-05-07T09:28:02;2.13;;;1.20;;
64710;SDS011;51139;45.626;6.850;2023-05-07T09:30:30;2.13;;;1.10;;
64710;SDS011;51139;45.626;6.850;2023-05-07T09:33:00;2.08;;;1.40;;
64710;SDS011;51139;45.626;6.850;2023-05-07T09:35:26;2.10;;;1.00;;
64710;SDS011;51139;45.626;6.850;2023-05-07T09:37:56;1.55;;;1.17;;
64710;SDS011;51139;45.626;6.850;2023-05-07T09:40:23;2.22;;;1.15;;
64710;SDS011;51139;45.626;6.850;2023-05-07T09:42:54;2.67;;;1.20;;
64710;SDS011;51139;45.626;6.850;2023-05-07T09:45:24;2.67;;;1.60;;
64710;SDS011;51139;45.626;6.850;2023-05-07T09:47:53;3.03;;;1.48;;
64710;SDS011;51139;45.626;6.850;2023-05-07T09:50:22;3.25;;;1.67;;
64710;SDS011;51139;45.626;6.850;2023-05-07T09:52:53;3.65;;;1.70;;
64710;SDS011;51139;45.626;6.850;2023-05-07T09:55:20;1.50;;;1.27;;
64710;SDS011;51139;45.626;6.850;2023-05-07T09:57:45;4.05;;;1.48;;
64710;SDS011;51139;45.626;6.850;2023-05-07T10:00:12;2.08;;;1.33;;
64710;SDS011;51139;45.626;6.850;2023-05-07T10:02:38;2.58;;;1.20;;
64710;SDS011;51139;45.626;6.850;2023-05-07T10:05:11;3.08;;;1.60;;
64710;SDS011;51139;45.626;6.850;2023-05-07T10:07:38;2.42;;;1.38;;
64710;SDS011;51139;45.626;6.850;2023-05-07T10:10:05;3.05;;;1.40;;
64710;SDS011;51139;45.626;6.850;2023-05-07T10:12:31;1.35;;;1.10;;
64710;SDS011;51139;45.626;6.850;2023-05-07T10:15:04;1.80;;;1.35;;
64710;SDS011;51139;45.626;6.850;2023-05-07T10:17:31;2.17;;;1.33;;
64710;SDS011;51139;45.626;6.850;2023-05-07T10:19:57;2.85;;;1.33;;
64710;SDS011;51139;45.626;6.850;2023-05-07T10:22:23;1.90;;;1.33;;
64710;SDS011;51139;45.626;6.850;2023-05-07T10:24:52;2.67;;;1.50;;
64710;SDS011;51139;45.626;6.850;2023-05-07T10:27:21;1.92;;;1.40;;
64710;SDS011;51139;45.626;6.850;2023-05-07T10:35:01;1.65;;;1.40;;
64710;SDS011;51139;45.626;6.850;2023-05-07T10:37:30;2.22;;;1.55;;
64710;SDS011;51139;45.626;6.850;2023-05-07T10:39:57;2.30;;;1.42;;
64710;SDS011;51139;45.626;6.850;2023-05-07T10:42:22;2.20;;;1.48;;
64710;SDS011;51139;45.626;6.850;2023-05-07T10:44:48;2.70;;;1.60;;
64710;SDS011;51139;45.626;6.850;2023-05-07T10:47:14;2.05;;;1.33;;
64710;SDS011;51139;45.626;6.850;2023-05-07T10:52:18;2.05;;;1.50;;
64710;SDS011;51139;45.626;6.850;2023-05-07T10:55:18;2.88;;;1.58;;
64710;SDS011;51139;45.626;6.850;2023-05-07T10:57:42;2.05;;;1.42;;
64710;SDS011;51139;45.626;6.850;2023-05-07T11:01:08;2.65;;;1.40;;
64710;SDS011;51139;45.626;6.850;2023-05-07T11:05:30;2.13;;;1.55;;
64710;SDS011;51139;45.626;6.850;2023-05-07T11:07:57;3.50;;;1.45;;
64710;SDS011;51139;45.626;6.850;2023-05-07T11:11:10;2.30;;;1.80;;
64710;SDS011;51139;45.626;6.850;2023-05-07T11:16:22;2.35;;;1.40;;
64710;SDS011;51139;45.626;6.850;2023-05-07T11:18:52;2.13;;;1.30;;
64710;SDS011;51139;45.626;6.850;2023-05-07T11:24:03;2.58;;;1.60;;
64710;SDS011;51139;45.626;6.850;2023-05-07T11:26:31;2.05;;;1.55;;
64710;SDS011;51139;45.626;6.850;2023-05-07T11:29:10;2.50;;;1.52;;
64710;SDS011;51139;45.626;6.850;2023-05-07T11:31:39;2.90;;;1.60;;
64710;SDS011;51139;45.626;6.850;2023-05-07T11:34:05;2.60;;;1.90;;
64710;SDS011;51139;45.626;6.850;2023-05-07T11:36:32;1.90;;;1.30;;
64710;SDS011;51139;45.626;6.850;2023-05-07T11:38:58;2.22;;;1.67;;
64710;SDS011;51139;45.626;6.850;2023-05-07T11:41:32;2.92;;;1.60;;
64710;SDS011;51139;45.626;6.850;2023-05-07T11:43:59;2.83;;;1.77;;
64710;SDS011;51139;45.626;6.850;2023-05-07T11:46:25;3.50;;;1.60;;
64710;SDS011;51139;45.626;6.850;2023-05-07T11:48:51;3.38;;;1.50;;
64710;SDS011;51139;45.626;6.850;2023-05-07T11:51:20;3.22;;;1.25;;
64710;SDS011;51139;45.626;6.850;2023-05-07T11:53:46;2.20;;;1.40;;
64710;SDS011;51139;45.626;6.850;2023-05-07T11:56:12;2.25;;;1.50;;
64710;SDS011;51139;45.626;6.850;2023-05-07T11:58:39;5.88;;;1.60;;
64710;SDS011;51139;45.626;6.850;2023-05-07T12:01:07;2.40;;;1.65;;
64710;SDS011;51139;45.626;6.850;2023-05-07T12:06:02;3.55;;;1.80;;
64710;SDS011;51139;45.626;6.850;2023-05-07T12:08:30;3.63;;;1.90;;
64710;SDS011;51139;45.626;6.850;2023-05-07T12:10:56;2.95;;;2.33;;
64710;SDS011;51139;45.626;6.850;2023-05-07T12:13:22;3.20;;;1.98;;
64710;SDS011;51139;45.626;6.850;2023-05-07T12:15:51;3.03;;;2.00;;
64710;SDS011;51139;45.626;6.850;2023-05-07T12:18:20;5.00;;;2.20;;
64710;SDS011;51139;45.626;6.850;2023-05-07T12:20:47;3.97;;;2.42;;
64710;SDS011;51139;45.626;6.850;2023-05-07T12:23:12;4.13;;;2.72;;
64710;SDS011;51139;45.626;6.850;2023-05-07T12:25:39;3.95;;;2.50;;
64710;SDS011;51139;45.626;6.850;2023-05-07T12:28:08;5.55;;;3.47;;
64710;SDS011;51139;45.626;6.850;2023-05-07T12:30:38;3.33;;;2.45;;
64710;SDS011;51139;45.626;6.850;2023-05-07T12:33:04;3.33;;;2.50;;
64710;SDS011;51139;45.626;6.850;2023-05-07T12:35:40;5.85;;;3.78;;
64710;SDS011;51139;45.626;6.850;2023-05-07T12:38:13;4.78;;;2.53;;
64710;SDS011;51139;45.626;6.850;2023-05-07T12:43:32;3.53;;;2.42;;
64710;SDS011;51139;45.626;6.850;2023-05-07T12:45:59;4.43;;;2.50;;
64710;SDS011;51139;45.626;6.850;2023-05-07T12:48:27;4.45;;;2.83;;
64710;SDS011;51139;45.626;6.850;2023-05-07T12:50:52;4.60;;;2.50;;
64710;SDS011;51139;45.626;6.850;2023-05-07T12:53:23;4.70;;;2.20;;
64710;SDS011;51139;45.626;6.850;2023-05-07T12:55:51;4.75;;;2.42;;
64710;SDS011;51139;45.626;6.850;2023-05-07T12:58:21;3.25;;;2.58;;
64710;SDS011;51139;45.626;6.850;2023-05-07T13:00:50;8.82;;;4.22;;
64710;SDS011;51139;45.626;6.850;2023-05-07T13:03:26;2.85;;;2.20;;
64710;SDS011;51139;45.626;6.850;2023-05-07T13:05:57;4.60;;;2.10;;
64710;SDS011;51139;45.626;6.850;2023-05-07T13:08:31;3.25;;;2.00;;
64710;SDS011;51139;45.626;6.850;2023-05-07T13:13:32;3.13;;;1.85;;
64710;SDS011;51139;45.626;6.850;2023-05-07T13:15:59;2.58;;;2.10;;
64710;SDS011;51139;45.626;6.850;2023-05-07T13:18:25;2.50;;;2.00;;
64710;SDS011;51139;45.626;6.850;2023-05-07T13:20:51;3.03;;;1.90;;
64710;SDS011;51139;45.626;6.850;2023-05-07T13:23:17;2.70;;;2.08;;
64710;SDS011;51139;45.626;6.850;2023-05-07T13:25:43;2.47;;;1.90;;
64710;SDS011;51139;45.626;6.850;2023-05-07T13:28:08;2.53;;;1.83;;
64710;SDS011;51139;45.626;6.850;2023-05-07T13:30:33;2.75;;;1.90;;
64710;SDS011;51139;45.626;6.850;2023-05-07T13:32:59;3.15;;;1.50;;
64710;SDS011;51139;45.626;6.850;2023-05-07T13:35:25;2.70;;;1.73;;
64710;SDS011;51139;45.626;6.850;2023-05-07T13:37:51;2.45;;;1.80;;
64710;SDS011;51139;45.626;6.850;2023-05-07T13:40:17;2.10;;;1.70;;
64710;SDS011;51139;45.626;6.850;2023-05-07T13:42:43;3.53;;;2.10;;
64710;SDS011;51139;45.626;6.850;2023-05-07T13:45:09;3.85;;;1.98;;
64710;SDS011;51139;45.626;6.850;2023-05-07T13:47:34;1.92;;;1.60;;
64710;SDS011;51139;45.626;6.850;2023-05-07T13:50:00;1.85;;;1.40;;
64710;SDS011;51139;45.626;6.850;2023-05-07T13:52:25;2.92;;;1.70;;
64710;SDS011;51139;45.626;6.850;2023-05-07T13:54:51;2.40;;;1.50;;
64710;SDS011;51139;45.626;6.850;2023-05-07T13:57:17;2.70;;;1.30;;
64710;SDS011;51139;45.626;6.850;2023-05-07T13:59:43;2.10;;;1.60;;
64710;SDS011;51139;45.626;6.850;2023-05-07T14:02:08;1.80;;;1.20;;
64710;SDS011;51139;45.626;6.850;2023-05-07T14:04:34;2.90;;;1.58;;
64710;SDS011;51139;45.626;6.850;2023-05-07T14:06:59;3.97;;;1.55;;
64710;SDS011;51139;45.626;6.850;2023-05-07T14:09:25;2.80;;;1.70;;
64710;SDS011;51139;45.626;6.850;2023-05-07T14:11:50;5.18;;;1.75;;
64710;SDS011;51139;45.626;6.850;2023-05-07T14:14:19;2.72;;;1.70;;
64710;SDS011;51139;45.626;6.850;2023-05-07T14:16:44;2.80;;;1.95;;
64710;SDS011;51139;45.626;6.850;2023-05-07T14:19:10;2.22;;;1.70;;
64710;SDS011;51139;45.626;6.850;2023-05-07T14:21:39;23.95;;;4.05;;
64710;SDS011;51139;45.626;6.850;2023-05-07T14:24:06;3.70;;;2.28;;
64710;SDS011;51139;45.626;6.850;2023-05-07T14:26:32;4.10;;;2.50;;
64710;SDS011;51139;45.626;6.850;2023-05-07T14:28:58;8.20;;;3.28;;
64710;SDS011;51139;45.626;6.850;2023-05-07T14:31:24;5.13;;;2.90;;
64710;SDS011;51139;45.626;6.850;2023-05-07T14:33:50;3.60;;;3.00;;
64710;SDS011;51139;45.626;6.850;2023-05-07T14:36:16;2.45;;;2.10;;
64710;SDS011;51139;45.626;6.850;2023-05-07T14:38:42;4.57;;;2.65;;
64710;SDS011;51139;45.626;6.850;2023-05-07T14:41:07;3.20;;;2.65;;
64710;SDS011;51139;45.626;6.850;2023-05-07T14:43:33;3.35;;;2.60;;
64710;SDS011;51139;45.626;6.850;2023-05-07T14:45:59;4.57;;;2.50;;
64710;SDS011;51139;45.626;6.850;2023-05-07T14:48:24;3.30;;;2.10;;
64710;SDS011;51139;45.626;6.850;2023-05-07T14:50:49;5.03;;;2.40;;
64710;SDS011;51139;45.626;6.850;2023-05-07T14:53:15;4.18;;;2.85;;
64710;SDS011;51139;45.626;6.850;2023-05-07T14:55:41;3.65;;;2.40;;
64710;SDS011;51139;45.626;6.850;2023-05-07T14:58:06;3.80;;;2.45;;
64710;SDS011;51139;45.626;6.850;2023-05-07T15:00:32;4.40;;;2.45;;
64710;SDS011;51139;45.626;6.850;2023-05-07T15:03:03;3.70;;;2.63;;
64710;SDS011;51139;45.626;6.850;2023-05-07T15:05:31;3.55;;;2.25;;
64710;SDS011;51139;45.626;6.850;2023-05-07T15:07:57;3.20;;;2.30;;